Atalandi — SVBA — position and weather

sailwx.info

Track history (hours):
 
Tides and Currents Weather Stations Pressure Air Temp Water Temp Dewpoint Dewpoint Depression Visibility Wind Speed Wind Dir Waves Ship Positions

Atalandi

Last reported at 2017-Oct-17 20:48 UTC. Time now 2017-Oct-18 00:18 UTC.
Position N 62°18' W 008°22'.

Length 248 m; draft 14.3 m.

Type: Ship. MMSI: 240269000.

Date/timePositionNaut miles runAvg speedWind from/ knotsBaromVisibWave heightAir tempDewpointWater temp
2017-Oct-17 20:48N 62°18' W 008°22'911.2
2017-Oct-17 19:59N 62°24' W 008°08'511.1
2017-Oct-17 19:30N 62°28' W 007°60'1511.5
2017-Oct-17 18:11N 62°38' W 007°36'612.0
2017-Oct-17 17:40N 62°43' W 007°26'212.3
2017-Oct-17 17:30N 62°44' W 007°23'612.7
2017-Oct-17 17:00N 62°48' W 007°12'713.0
2017-Oct-17 16:30N 62°53' W 007°02'  
2017-Oct-12 22:10N 69°03' E 033°06'1 6.7
2017-Oct-12 22:00N 69°03' E 033°04'1 0.9
2017-Oct-12 21:16N 69°02' E 033°03'0 0.0
2017-Oct-12 20:58N 69°02' E 033°02'0 0.0
2017-Oct-12 20:25N 69°02' E 033°02'0 0.0
2017-Oct-12 19:01N 69°02' E 033°02'0 0.1
2017-Oct-12 18:55N 69°02' E 033°02'0 0.0
2017-Oct-12 18:25N 69°02' E 033°02'0 0.0
2017-Oct-12 17:58N 69°02' E 033°02'0 0.0
2017-Oct-12 17:19N 69°02' E 033°02'0 0.0
2017-Oct-12 16:49N 69°02' E 033°02'0 0.0
2017-Oct-12 16:22N 69°02' E 033°02'0 0.0
2017-Oct-12 11:31N 69°02' E 033°02'0 0.0
2017-Oct-12 09:40N 69°02' E 033°02'0 0.0
2017-Oct-12 08:16N 69°02' E 033°02'0 0.0
2017-Oct-12 06:19N 69°02' E 033°02'0 0.0
2017-Oct-12 05:55N 69°02' E 033°02'0 0.0
2017-Oct-12 05:28N 69°02' E 033°02'0 0.0
2017-Oct-12 02:37N 69°02' E 033°02'0 0.0
2017-Oct-12 02:25N 69°02' E 033°02'0 0.0
2017-Oct-12 01:04N 69°02' E 033°02'0 0.0
2017-Oct-12 00:46N 69°02' E 033°02'0 0.0
2017-Oct-12 00:28N 69°02' E 033°02'0 0.0
2017-Oct-11 23:22N 69°02' E 033°02'0 0.0
2017-Oct-11 22:49N 69°02' E 033°02'0 0.0
2017-Oct-11 22:28N 69°02' E 033°02'0 0.0
2017-Oct-11 21:52N 69°02' E 033°02'0 0.0
2017-Oct-11 21:28N 69°02' E 033°02'0 0.0
2017-Oct-11 20:52N 69°02' E 033°02'0 0.0
2017-Oct-11 20:28N 69°02' E 033°02'0 0.0
2017-Oct-11 19:52N 69°02' E 033°02'0 0.0
2017-Oct-11 19:25N 69°02' E 033°02'0 0.0
2017-Oct-11 18:55N 69°02' E 033°02'0 0.0
2017-Oct-11 18:07N 69°02' E 033°02'0 0.0
2017-Oct-11 17:46N 69°02' E 033°02'0 0.0
2017-Oct-11 17:28N 69°02' E 033°02'0 0.0
2017-Oct-11 16:58N 69°02' E 033°02'0 0.0
2017-Oct-10 23:22N 69°02' E 033°02'0 0.0
2017-Oct-10 22:43N 69°02' E 033°02'0 0.0
2017-Oct-10 22:16N 69°02' E 033°02'0 0.0
2017-Oct-10 21:58N 69°02' E 033°02'0 0.0
2017-Oct-10 21:28N 69°02' E 033°02'0 0.0
2017-Oct-10 20:58N 69°02' E 033°02'0 0.0
2017-Oct-10 20:28N 69°02' E 033°02'0 0.0
2017-Oct-10 19:52N 69°02' E 033°02'0 0.0
2017-Oct-10 19:25N 69°02' E 033°02'0 0.0
2017-Oct-10 18:58N 69°02' E 033°02'0 0.0
2017-Oct-10 18:30N 69°02' E 033°02'0 0.0
2017-Oct-10 18:00N 69°02' E 033°02'0 0.0
2017-Oct-10 17:30N 69°02' E 033°02'0 0.0
2017-Oct-10 17:00N 69°02' E 033°02'0 0.0
2017-Oct-10 16:30N 69°02' E 033°02'0 0.2
2017-Oct-10 16:00N 69°02' E 033°03'0 0.8
2017-Oct-10 15:30N 69°03' E 033°03'  
2017-Oct-07 23:09N 71°07' E 030°14'1 7.2
2017-Oct-07 23:00N 71°07' E 030°11'4 7.2
2017-Oct-07 22:30N 71°09' E 030°02'4 7.2
2017-Oct-07 22:00N 71°11' E 029°52'4 7.5
2017-Oct-07 21:30N 71°14' E 029°43'4 7.4
2017-Oct-07 21:00N 71°16' E 029°34'  
Track history (hours):
 
Tides and Currents Weather Stations Pressure Air Temp Water Temp Dewpoint Dewpoint Depression Visibility Wind Speed Wind Dir Waves Ship Positions

Atalandi

Last reported at 2017-Oct-17 20:48 UTC. Time now 2017-Oct-18 00:18 UTC.
Position N 62°18' W 008°22'.

Length 248 m; draft 14.3 m.

Type: Ship. MMSI: 240269000.

Date/timePositionNaut miles runAvg speedWind from/ knotsBaromVisibWave heightAir tempDewpointWater temp
2017-Oct-17 20:48N 62°18' W 008°22'911.2
2017-Oct-17 19:59N 62°24' W 008°08'511.1
2017-Oct-17 19:30N 62°28' W 007°60'1511.5
2017-Oct-17 18:11N 62°38' W 007°36'612.0
2017-Oct-17 17:40N 62°43' W 007°26'212.3
2017-Oct-17 17:30N 62°44' W 007°23'612.7
2017-Oct-17 17:00N 62°48' W 007°12'713.0
2017-Oct-17 16:30N 62°53' W 007°02'  
2017-Oct-12 22:10N 69°03' E 033°06'1 6.7
2017-Oct-12 22:00N 69°03' E 033°04'1 0.9
2017-Oct-12 21:16N 69°02' E 033°03'0 0.0
2017-Oct-12 20:58N 69°02' E 033°02'0 0.0
2017-Oct-12 20:25N 69°02' E 033°02'0 0.0
2017-Oct-12 19:01N 69°02' E 033°02'0 0.1
2017-Oct-12 18:55N 69°02' E 033°02'0 0.0
2017-Oct-12 18:25N 69°02' E 033°02'0 0.0
2017-Oct-12 17:58N 69°02' E 033°02'0 0.0
2017-Oct-12 17:19N 69°02' E 033°02'0 0.0
2017-Oct-12 16:49N 69°02' E 033°02'0 0.0
2017-Oct-12 16:22N 69°02' E 033°02'0 0.0
2017-Oct-12 11:31N 69°02' E 033°02'0 0.0
2017-Oct-12 09:40N 69°02' E 033°02'0 0.0
2017-Oct-12 08:16N 69°02' E 033°02'0 0.0
2017-Oct-12 06:19N 69°02' E 033°02'0 0.0
2017-Oct-12 05:55N 69°02' E 033°02'0 0.0
2017-Oct-12 05:28N 69°02' E 033°02'0 0.0
2017-Oct-12 02:37N 69°02' E 033°02'0 0.0
2017-Oct-12 02:25N 69°02' E 033°02'0 0.0
2017-Oct-12 01:04N 69°02' E 033°02'0 0.0
2017-Oct-12 00:46N 69°02' E 033°02'0 0.0
2017-Oct-12 00:28N 69°02' E 033°02'0 0.0
2017-Oct-11 23:22N 69°02' E 033°02'0 0.0
2017-Oct-11 22:49N 69°02' E 033°02'0 0.0
2017-Oct-11 22:28N 69°02' E 033°02'0 0.0
2017-Oct-11 21:52N 69°02' E 033°02'0 0.0
2017-Oct-11 21:28N 69°02' E 033°02'0 0.0
2017-Oct-11 20:52N 69°02' E 033°02'0 0.0
2017-Oct-11 20:28N 69°02' E 033°02'0 0.0
2017-Oct-11 19:52N 69°02' E 033°02'0 0.0
2017-Oct-11 19:25N 69°02' E 033°02'0 0.0
2017-Oct-11 18:55N 69°02' E 033°02'0 0.0
2017-Oct-11 18:07N 69°02' E 033°02'0 0.0
2017-Oct-11 17:46N 69°02' E 033°02'0 0.0
2017-Oct-11 17:28N 69°02' E 033°02'0 0.0
2017-Oct-11 16:58N 69°02' E 033°02'0 0.0
2017-Oct-10 23:22N 69°02' E 033°02'0 0.0
2017-Oct-10 22:43N 69°02' E 033°02'0 0.0
2017-Oct-10 22:16N 69°02' E 033°02'0 0.0
2017-Oct-10 21:58N 69°02' E 033°02'0 0.0
2017-Oct-10 21:28N 69°02' E 033°02'0 0.0
2017-Oct-10 20:58N 69°02' E 033°02'0 0.0
2017-Oct-10 20:28N 69°02' E 033°02'0 0.0
2017-Oct-10 19:52N 69°02' E 033°02'0 0.0
2017-Oct-10 19:25N 69°02' E 033°02'0 0.0
2017-Oct-10 18:58N 69°02' E 033°02'0 0.0
2017-Oct-10 18:30N 69°02' E 033°02'0 0.0
2017-Oct-10 18:00N 69°02' E 033°02'0 0.0
2017-Oct-10 17:30N 69°02' E 033°02'0 0.0
2017-Oct-10 17:00N 69°02' E 033°02'0 0.0
2017-Oct-10 16:30N 69°02' E 033°02'0 0.2
2017-Oct-10 16:00N 69°02' E 033°03'0 0.8
2017-Oct-10 15:30N 69°03' E 033°03'  
2017-Oct-07 23:09N 71°07' E 030°14'1 7.2
2017-Oct-07 23:00N 71°07' E 030°11'4 7.2
2017-Oct-07 22:30N 71°09' E 030°02'4 7.2
2017-Oct-07 22:00N 71°11' E 029°52'4 7.5
2017-Oct-07 21:30N 71°14' E 029°43'4 7.4
2017-Oct-07 21:00N 71°16' E 029°34'  

Dump ship's entire track history